sensor_id;sensor_type;location;lat;lon;timestamp;temperature;humidity
14119;DHT22;7138;49.246;9.100;2022-07-05T00:01:04;16.10;99.90
14119;DHT22;7138;49.246;9.100;2022-07-05T00:03:32;16.00;99.90
14119;DHT22;7138;49.246;9.100;2022-07-05T00:05:58;15.90;99.90
14119;DHT22;7138;49.246;9.100;2022-07-05T00:08:24;15.90;99.90
14119;DHT22;7138;49.246;9.100;2022-07-05T00:10:51;16.00;99.90
14119;DHT22;7138;49.246;9.100;2022-07-05T00:13:17;16.10;99.90
14119;DHT22;7138;49.246;9.100;2022-07-05T00:15:43;16.00;99.90
14119;DHT22;7138;49.246;9.100;2022-07-05T00:18:09;16.00;99.90
14119;DHT22;7138;49.246;9.100;2022-07-05T00:20:37;16.00;99.90
14119;DHT22;7138;49.246;9.100;2022-07-05T00:23:03;16.00;99.90
14119;DHT22;7138;49.246;9.100;2022-07-05T00:25:29;15.80;99.90
14119;DHT22;7138;49.246;9.100;2022-07-05T00:27:54;15.80;99.90
14119;DHT22;7138;49.246;9.100;2022-07-05T00:30:20;15.60;99.90
14119;DHT22;7138;49.246;9.100;2022-07-05T00:32:46;15.70;99.90
14119;DHT22;7138;49.246;9.100;2022-07-05T00:35:12;15.60;99.90
14119;DHT22;7138;49.246;9.100;2022-07-05T00:37:39;15.60;99.90
14119;DHT22;7138;49.246;9.100;2022-07-05T00:40:06;15.50;99.90
14119;DHT22;7138;49.246;9.100;2022-07-05T00:42:33;15.50;99.90
14119;DHT22;7138;49.246;9.100;2022-07-05T00:44:59;15.50;99.90
14119;DHT22;7138;49.246;9.100;2022-07-05T00:47:25;15.40;99.90
14119;DHT22;7138;49.246;9.100;2022-07-05T00:49:51;15.30;99.90
14119;DHT22;7138;49.246;9.100;2022-07-05T00:52:17;15.20;99.90
14119;DHT22;7138;49.246;9.100;2022-07-05T00:54:47;15.00;99.90
14119;DHT22;7138;49.246;9.100;2022-07-05T00:57:13;15.00;99.90
14119;DHT22;7138;49.246;9.100;2022-07-05T00:59:40;15.00;99.90
14119;DHT22;7138;49.246;9.100;2022-07-05T01:02:05;15.00;99.90
14119;DHT22;7138;49.246;9.100;2022-07-05T01:04:31;15.00;99.90
14119;DHT22;7138;49.246;9.100;2022-07-05T01:06:58;15.00;99.90
14119;DHT22;7138;49.246;9.100;2022-07-05T01:09:24;15.00;99.90
14119;DHT22;7138;49.246;9.100;2022-07-05T01:11:52;15.10;99.90
14119;DHT22;7138;49.246;9.100;2022-07-05T01:14:21;15.10;99.90
14119;DHT22;7138;49.246;9.100;2022-07-05T01:16:49;15.00;99.90
14119;DHT22;7138;49.246;9.100;2022-07-05T01:19:16;14.90;99.90
14119;DHT22;7138;49.246;9.100;2022-07-05T01:21:43;14.80;99.90
14119;DHT22;7138;49.246;9.100;2022-07-05T01:24:14;14.80;99.90
14119;DHT22;7138;49.246;9.100;2022-07-05T01:26:43;14.80;99.90
14119;DHT22;7138;49.246;9.100;2022-07-05T01:29:11;14.80;99.90
14119;DHT22;7138;49.246;9.100;2022-07-05T01:31:37;14.90;99.90
14119;DHT22;7138;49.246;9.100;2022-07-05T01:34:04;15.00;99.90
14119;DHT22;7138;49.246;9.100;2022-07-05T01:36:30;14.90;99.90
14119;DHT22;7138;49.246;9.100;2022-07-05T01:38:56;14.80;99.90
14119;DHT22;7138;49.246;9.100;2022-07-05T01:41:23;14.90;99.90
14119;DHT22;7138;49.246;9.100;2022-07-05T01:43:49;14.80;99.90
14119;DHT22;7138;49.246;9.100;2022-07-05T01:46:16;14.70;99.90
14119;DHT22;7138;49.246;9.100;2022-07-05T01:48:44;14.60;99.90
14119;DHT22;7138;49.246;9.100;2022-07-05T01:51:18;14.60;99.90
14119;DHT22;7138;49.246;9.100;2022-07-05T01:53:50;14.50;99.90
14119;DHT22;7138;49.246;9.100;2022-07-05T01:56:17;14.50;99.90
14119;DHT22;7138;49.246;9.100;2022-07-05T01:58:45;14.50;99.90
14119;DHT22;7138;49.246;9.100;2022-07-05T02:01:12;14.40;99.90
14119;DHT22;7138;49.246;9.100;2022-07-05T02:03:39;14.40;99.90
14119;DHT22;7138;49.246;9.100;2022-07-05T02:06:05;14.40;99.90
14119;DHT22;7138;49.246;9.100;2022-07-05T02:08:35;14.30;99.90
14119;DHT22;7138;49.246;9.100;2022-07-05T02:11:02;14.30;99.90
14119;DHT22;7138;49.246;9.100;2022-07-05T02:13:28;14.40;99.90
14119;DHT22;7138;49.246;9.100;2022-07-05T02:15:55;14.40;99.90
14119;DHT22;7138;49.246;9.100;2022-07-05T02:18:21;14.40;99.90
14119;DHT22;7138;49.246;9.100;2022-07-05T02:20:47;14.30;99.90
14119;DHT22;7138;49.246;9.100;2022-07-05T02:23:13;14.20;99.90
14119;DHT22;7138;49.246;9.100;2022-07-05T02:25:39;14.20;99.90
14119;DHT22;7138;49.246;9.100;2022-07-05T02:28:05;14.10;99.90
14119;DHT22;7138;49.246;9.100;2022-07-05T02:30:31;14.10;99.90
14119;DHT22;7138;49.246;9.100;2022-07-05T02:32:58;14.20;99.90
14119;DHT22;7138;49.246;9.100;2022-07-05T02:35:24;14.20;99.90
14119;DHT22;7138;49.246;9.100;2022-07-05T02:37:50;14.20;99.90
14119;DHT22;7138;49.246;9.100;2022-07-05T02:40:16;14.10;99.90
14119;DHT22;7138;49.246;9.100;2022-07-05T02:42:42;14.00;99.90
14119;DHT22;7138;49.246;9.100;2022-07-05T02:45:08;14.00;99.90
14119;DHT22;7138;49.246;9.100;2022-07-05T02:47:35;14.00;99.90
14119;DHT22;7138;49.246;9.100;2022-07-05T02:50:04;14.00;99.90
14119;DHT22;7138;49.246;9.100;2022-07-05T02:52:31;14.00;99.90
14119;DHT22;7138;49.246;9.100;2022-07-05T02:54:57;14.00;99.90
14119;DHT22;7138;49.246;9.100;2022-07-05T02:57:23;14.00;99.90
14119;DHT22;7138;49.246;9.100;2022-07-05T02:59:50;13.90;99.90
14119;DHT22;7138;49.246;9.100;2022-07-05T03:02:17;13.70;99.90
14119;DHT22;7138;49.246;9.100;2022-07-05T03:04:46;13.80;99.90
14119;DHT22;7138;49.246;9.100;2022-07-05T03:07:13;13.80;99.90
14119;DHT22;7138;49.246;9.100;2022-07-05T03:09:39;13.70;99.90
14119;DHT22;7138;49.246;9.100;2022-07-05T03:12:06;13.60;99.90
14119;DHT22;7138;49.246;9.100;2022-07-05T03:14:33;13.50;99.90
14119;DHT22;7138;49.246;9.100;2022-07-05T03:16:59;13.50;99.90
14119;DHT22;7138;49.246;9.100;2022-07-05T03:19:24;13.50;99.90
14119;DHT22;7138;49.246;9.100;2022-07-05T03:21:50;13.40;99.90
14119;DHT22;7138;49.246;9.100;2022-07-05T03:24:17;13.40;99.90
14119;DHT22;7138;49.246;9.100;2022-07-05T03:26:43;13.40;99.90
14119;DHT22;7138;49.246;9.100;2022-07-05T03:29:09;13.50;99.90
14119;DHT22;7138;49.246;9.100;2022-07-05T03:31:35;13.60;99.90
14119;DHT22;7138;49.246;9.100;2022-07-05T03:34:01;13.60;99.90
14119;DHT22;7138;49.246;9.100;2022-07-05T03:36:27;13.60;99.90
14119;DHT22;7138;49.246;9.100;2022-07-05T03:38:53;13.50;99.90
14119;DHT22;7138;49.246;9.100;2022-07-05T03:41:21;13.40;99.90
14119;DHT22;7138;49.246;9.100;2022-07-05T03:43:47;13.50;99.90
14119;DHT22;7138;49.246;9.100;2022-07-05T03:46:12;13.60;99.90
14119;DHT22;7138;49.246;9.100;2022-07-05T03:48:38;13.50;99.90
14119;DHT22;7138;49.246;9.100;2022-07-05T03:51:04;13.40;99.90
14119;DHT22;7138;49.246;9.100;2022-07-05T03:53:30;13.30;99.90
14119;DHT22;7138;49.246;9.100;2022-07-05T03:55:56;13.30;99.90
14119;DHT22;7138;49.246;9.100;2022-07-05T03:58:23;13.60;99.90
14119;DHT22;7138;49.246;9.100;2022-07-05T04:00:49;13.60;99.90
14119;DHT22;7138;49.246;9.100;2022-07-05T04:03:15;13.60;99.90
14119;DHT22;7138;49.246;9.100;2022-07-05T04:05:41;13.70;99.90
14119;DHT22;7138;49.246;9.100;2022-07-05T04:08:07;13.70;99.90
14119;DHT22;7138;49.246;9.100;2022-07-05T04:10:33;13.70;99.90
14119;DHT22;7138;49.246;9.100;2022-07-05T04:12:59;13.70;99.90
14119;DHT22;7138;49.246;9.100;2022-07-05T04:15:26;13.70;99.90
14119;DHT22;7138;49.246;9.100;2022-07-05T04:17:53;13.80;99.90
14119;DHT22;7138;49.246;9.100;2022-07-05T04:20:22;13.70;99.90
14119;DHT22;7138;49.246;9.100;2022-07-05T04:22:50;13.80;99.90
14119;DHT22;7138;49.246;9.100;2022-07-05T04:25:17;13.80;99.90
14119;DHT22;7138;49.246;9.100;2022-07-05T04:27:44;13.70;99.90
14119;DHT22;7138;49.246;9.100;2022-07-05T04:30:10;13.70;99.90
14119;DHT22;7138;49.246;9.100;2022-07-05T04:32:38;13.70;99.90
14119;DHT22;7138;49.246;9.100;2022-07-05T04:35:05;13.70;99.90
14119;DHT22;7138;49.246;9.100;2022-07-05T04:37:31;13.80;99.90
14119;DHT22;7138;49.246;9.100;2022-07-05T04:39:57;13.80;99.90
14119;DHT22;7138;49.246;9.100;2022-07-05T04:42:23;13.90;99.90
14119;DHT22;7138;49.246;9.100;2022-07-05T04:44:49;14.00;99.90
14119;DHT22;7138;49.246;9.100;2022-07-05T04:47:15;14.00;99.90
14119;DHT22;7138;49.246;9.100;2022-07-05T04:49:42;14.00;99.90
14119;DHT22;7138;49.246;9.100;2022-07-05T04:52:08;14.20;99.90
14119;DHT22;7138;49.246;9.100;2022-07-05T04:54:34;14.30;99.90
14119;DHT22;7138;49.246;9.100;2022-07-05T04:57:01;14.30;99.90
14119;DHT22;7138;49.246;9.100;2022-07-05T04:59:26;14.40;99.90
14119;DHT22;7138;49.246;9.100;2022-07-05T05:01:52;14.50;99.90
14119;DHT22;7138;49.246;9.100;2022-07-05T05:04:18;14.60;99.90
14119;DHT22;7138;49.246;9.100;2022-07-05T05:06:45;14.70;99.90
14119;DHT22;7138;49.246;9.100;2022-07-05T05:09:11;15.00;99.90
14119;DHT22;7138;49.246;9.100;2022-07-05T05:11:37;15.60;99.90
14119;DHT22;7138;49.246;9.100;2022-07-05T05:14:03;16.60;99.90
14119;DHT22;7138;49.246;9.100;2022-07-05T05:16:28;17.60;99.90
14119;DHT22;7138;49.246;9.100;2022-07-05T05:18:55;18.80;99.90
14119;DHT22;7138;49.246;9.100;2022-07-05T05:21:21;19.80;99.90
14119;DHT22;7138;49.246;9.100;2022-07-05T05:23:48;20.60;99.90
14119;DHT22;7138;49.246;9.100;2022-07-05T05:26:14;21.00;99.90
14119;DHT22;7138;49.246;9.100;2022-07-05T05:28:40;21.60;99.90
14119;DHT22;7138;49.246;9.100;2022-07-05T05:31:06;21.70;99.90
14119;DHT22;7138;49.246;9.100;2022-07-05T05:33:32;22.20;99.90
14119;DHT22;7138;49.246;9.100;2022-07-05T05:35:58;22.40;99.90
14119;DHT22;7138;49.246;9.100;2022-07-05T05:38:25;22.60;99.90
14119;DHT22;7138;49.246;9.100;2022-07-05T05:40:52;23.20;99.90
14119;DHT22;7138;49.246;9.100;2022-07-05T05:43:18;23.30;99.90
14119;DHT22;7138;49.246;9.100;2022-07-05T05:45:44;23.40;99.90
14119;DHT22;7138;49.246;9.100;2022-07-05T05:48:10;23.80;99.90
14119;DHT22;7138;49.246;9.100;2022-07-05T05:50:37;24.00;99.90
14119;DHT22;7138;49.246;9.100;2022-07-05T05:53:07;23.90;99.90
14119;DHT22;7138;49.246;9.100;2022-07-05T05:55:34;24.50;99.90
14119;DHT22;7138;49.246;9.100;2022-07-05T05:58:12;24.80;99.90
14119;DHT22;7138;49.246;9.100;2022-07-05T06:00:38;24.40;99.90
14119;DHT22;7138;49.246;9.100;2022-07-05T06:03:04;24.90;99.90
14119;DHT22;7138;49.246;9.100;2022-07-05T06:05:30;25.20;99.90
14119;DHT22;7138;49.246;9.100;2022-07-05T06:07:56;25.20;99.90
14119;DHT22;7138;49.246;9.100;2022-07-05T06:10:24;25.40;99.90
14119;DHT22;7138;49.246;9.100;2022-07-05T06:12:53;25.60;99.90
14119;DHT22;7138;49.246;9.100;2022-07-05T06:15:22;25.70;99.90
14119;DHT22;7138;49.246;9.100;2022-07-05T06:17:48;26.00;99.90
14119;DHT22;7138;49.246;9.100;2022-07-05T06:20:16;26.10;99.90
14119;DHT22;7138;49.246;9.100;2022-07-05T06:22:44;26.10;99.90
14119;DHT22;7138;49.246;9.100;2022-07-05T06:25:11;26.90;99.90
14119;DHT22;7138;49.246;9.100;2022-07-05T06:27:38;27.00;99.90
14119;DHT22;7138;49.246;9.100;2022-07-05T06:30:05;26.90;99.90
14119;DHT22;7138;49.246;9.100;2022-07-05T06:32:34;27.00;99.90
14119;DHT22;7138;49.246;9.100;2022-07-05T06:34:59;26.90;99.90
14119;DHT22;7138;49.246;9.100;2022-07-05T06:37:25;27.00;99.90
14119;DHT22;7138;49.246;9.100;2022-07-05T06:39:51;26.90;99.90
14119;DHT22;7138;49.246;9.100;2022-07-05T06:42:17;27.30;99.90
14119;DHT22;7138;49.246;9.100;2022-07-05T06:44:43;27.50;99.90
14119;DHT22;7138;49.246;9.100;2022-07-05T06:47:09;27.70;99.90
14119;DHT22;7138;49.246;9.100;2022-07-05T06:49:36;27.20;99.90
14119;DHT22;7138;49.246;9.100;2022-07-05T06:52:02;27.10;99.90
14119;DHT22;7138;49.246;9.100;2022-07-05T06:54:28;27.10;99.90
14119;DHT22;7138;49.246;9.100;2022-07-05T06:56:54;26.90;99.90
14119;DHT22;7138;49.246;9.100;2022-07-05T06:59:21;27.20;99.90
14119;DHT22;7138;49.246;9.100;2022-07-05T07:01:48;27.10;99.90
14119;DHT22;7138;49.246;9.100;2022-07-05T07:04:14;27.30;99.90
14119;DHT22;7138;49.246;9.100;2022-07-05T07:06:42;26.90;99.90
14119;DHT22;7138;49.246;9.100;2022-07-05T07:09:08;26.80;99.90
14119;DHT22;7138;49.246;9.100;2022-07-05T07:11:49;25.70;98.00
14119;DHT22;7138;49.246;9.100;2022-07-05T07:14:16;25.70;99.90
14119;DHT22;7138;49.246;9.100;2022-07-05T07:16:42;25.70;99.90
14119;DHT22;7138;49.246;9.100;2022-07-05T07:19:08;25.90;97.40
14119;DHT22;7138;49.246;9.100;2022-07-05T07:21:34;25.70;99.00
14119;DHT22;7138;49.246;9.100;2022-07-05T07:24:02;25.30;97.80
14119;DHT22;7138;49.246;9.100;2022-07-05T07:26:28;25.60;98.80
14119;DHT22;7138;49.246;9.100;2022-07-05T07:28:54;25.70;98.00
14119;DHT22;7138;49.246;9.100;2022-07-05T07:31:19;25.70;97.30
14119;DHT22;7138;49.246;9.100;2022-07-05T07:33:45;25.20;99.10
14119;DHT22;7138;49.246;9.100;2022-07-05T07:36:11;25.20;99.90
14119;DHT22;7138;49.246;9.100;2022-07-05T07:38:38;25.40;99.90
14119;DHT22;7138;49.246;9.100;2022-07-05T07:41:05;25.90;99.90
14119;DHT22;7138;49.246;9.100;2022-07-05T07:43:31;26.00;99.90
14119;DHT22;7138;49.246;9.100;2022-07-05T07:45:57;26.00;99.80
14119;DHT22;7138;49.246;9.100;2022-07-05T07:48:23;25.90;99.10
14119;DHT22;7138;49.246;9.100;2022-07-05T07:50:49;26.20;99.90
14119;DHT22;7138;49.246;9.100;2022-07-05T07:53:15;26.10;99.40
14119;DHT22;7138;49.246;9.100;2022-07-05T07:55:41;26.10;99.90
14119;DHT22;7138;49.246;9.100;2022-07-05T07:58:08;26.60;99.90
14119;DHT22;7138;49.246;9.100;2022-07-05T08:00:34;26.70;99.90
14119;DHT22;7138;49.246;9.100;2022-07-05T08:02:59;26.80;98.40
14119;DHT22;7138;49.246;9.100;2022-07-05T08:05:25;26.60;98.20
14119;DHT22;7138;49.246;9.100;2022-07-05T08:07:51;27.10;99.10
14119;DHT22;7138;49.246;9.100;2022-07-05T08:10:17;27.40;97.70
14119;DHT22;7138;49.246;9.100;2022-07-05T08:12:43;27.20;99.30
14119;DHT22;7138;49.246;9.100;2022-07-05T08:15:10;27.40;98.80
14119;DHT22;7138;49.246;9.100;2022-07-05T08:17:36;27.40;99.90
14119;DHT22;7138;49.246;9.100;2022-07-05T08:20:03;27.30;98.10
14119;DHT22;7138;49.246;9.100;2022-07-05T08:22:48;27.10;98.00
14119;DHT22;7138;49.246;9.100;2022-07-05T08:25:14;27.20;99.30
14119;DHT22;7138;49.246;9.100;2022-07-05T08:27:40;27.30;99.20
14119;DHT22;7138;49.246;9.100;2022-07-05T08:30:07;27.70;98.80
14119;DHT22;7138;49.246;9.100;2022-07-05T08:32:35;27.70;99.50
14119;DHT22;7138;49.246;9.100;2022-07-05T08:35:02;27.60;97.40
14119;DHT22;7138;49.246;9.100;2022-07-05T08:37:28;27.90;97.30
14119;DHT22;7138;49.246;9.100;2022-07-05T08:39:53;27.80;98.10
14119;DHT22;7138;49.246;9.100;2022-07-05T08:42:20;27.70;99.30
14119;DHT22;7138;49.246;9.100;2022-07-05T08:44:47;27.90;96.90
14119;DHT22;7138;49.246;9.100;2022-07-05T08:47:16;27.90;98.00
14119;DHT22;7138;49.246;9.100;2022-07-05T08:49:47;27.90;98.10
14119;DHT22;7138;49.246;9.100;2022-07-05T08:52:15;27.90;97.40
14119;DHT22;7138;49.246;9.100;2022-07-05T08:54:43;27.30;97.00
14119;DHT22;7138;49.246;9.100;2022-07-05T08:57:11;27.50;96.80
14119;DHT22;7138;49.246;9.100;2022-07-05T08:59:37;27.60;98.30
14119;DHT22;7138;49.246;9.100;2022-07-05T09:02:03;27.30;99.00
14119;DHT22;7138;49.246;9.100;2022-07-05T09:04:33;27.70;98.80
14119;DHT22;7138;49.246;9.100;2022-07-05T09:07:08;27.70;96.10
14119;DHT22;7138;49.246;9.100;2022-07-05T09:09:38;27.90;97.40
14119;DHT22;7138;49.246;9.100;2022-07-05T09:12:09;27.80;95.10
14119;DHT22;7138;49.246;9.100;2022-07-05T09:14:37;27.80;96.30
14119;DHT22;7138;49.246;9.100;2022-07-05T09:17:03;27.90;95.10
14119;DHT22;7138;49.246;9.100;2022-07-05T09:19:29;28.10;95.80
14119;DHT22;7138;49.246;9.100;2022-07-05T09:22:01;28.50;96.90
14119;DHT22;7138;49.246;9.100;2022-07-05T09:24:30;28.30;94.90
14119;DHT22;7138;49.246;9.100;2022-07-05T09:27:02;28.50;95.00
14119;DHT22;7138;49.246;9.100;2022-07-05T09:29:29;28.30;91.90
14119;DHT22;7138;49.246;9.100;2022-07-05T09:31:55;28.40;93.80
14119;DHT22;7138;49.246;9.100;2022-07-05T09:34:21;28.20;93.90
14119;DHT22;7138;49.246;9.100;2022-07-05T09:36:52;28.40;93.20
14119;DHT22;7138;49.246;9.100;2022-07-05T09:39:38;28.30;93.30
14119;DHT22;7138;49.246;9.100;2022-07-05T09:42:12;28.40;92.00
14119;DHT22;7138;49.246;9.100;2022-07-05T09:44:46;28.40;91.50
14119;DHT22;7138;49.246;9.100;2022-07-05T09:47:14;28.60;91.90
14119;DHT22;7138;49.246;9.100;2022-07-05T09:49:42;28.70;93.30
14119;DHT22;7138;49.246;9.100;2022-07-05T09:52:27;28.70;92.90
14119;DHT22;7138;49.246;9.100;2022-07-05T09:55:03;28.90;94.20
14119;DHT22;7138;49.246;9.100;2022-07-05T09:57:29;29.10;92.40
14119;DHT22;7138;49.246;9.100;2022-07-05T10:00:01;29.20;92.00
14119;DHT22;7138;49.246;9.100;2022-07-05T10:02:37;29.30;90.40
14119;DHT22;7138;49.246;9.100;2022-07-05T10:05:11;29.10;91.70
14119;DHT22;7138;49.246;9.100;2022-07-05T10:07:40;28.80;90.90
14119;DHT22;7138;49.246;9.100;2022-07-05T10:10:12;28.60;91.00
14119;DHT22;7138;49.246;9.100;2022-07-05T10:12:40;28.90;91.70
14119;DHT22;7138;49.246;9.100;2022-07-05T10:15:09;29.00;91.90
14119;DHT22;7138;49.246;9.100;2022-07-05T10:17:37;29.10;90.30
14119;DHT22;7138;49.246;9.100;2022-07-05T10:20:14;29.20;92.60
14119;DHT22;7138;49.246;9.100;2022-07-05T10:22:44;28.80;91.10
14119;DHT22;7138;49.246;9.100;2022-07-05T10:25:13;28.80;91.20
14119;DHT22;7138;49.246;9.100;2022-07-05T10:27:40;29.00;92.60
14119;DHT22;7138;49.246;9.100;2022-07-05T10:30:07;28.60;92.20
14119;DHT22;7138;49.246;9.100;2022-07-05T10:32:34;28.70;90.50
14119;DHT22;7138;49.246;9.100;2022-07-05T10:35:01;29.10;90.20
14119;DHT22;7138;49.246;9.100;2022-07-05T10:37:30;28.60;90.00
14119;DHT22;7138;49.246;9.100;2022-07-05T10:39:58;28.20;91.70
14119;DHT22;7138;49.246;9.100;2022-07-05T10:42:29;27.90;90.10
14119;DHT22;7138;49.246;9.100;2022-07-05T10:44:59;28.40;90.50
14119;DHT22;7138;49.246;9.100;2022-07-05T10:47:25;28.80;88.20
14119;DHT22;7138;49.246;9.100;2022-07-05T10:50:01;28.90;89.30
14119;DHT22;7138;49.246;9.100;2022-07-05T10:52:30;29.10;89.00
14119;DHT22;7138;49.246;9.100;2022-07-05T10:55:21;29.10;91.40
14119;DHT22;7138;49.246;9.100;2022-07-05T10:58:21;29.20;89.30
14119;DHT22;7138;49.246;9.100;2022-07-05T11:04:28;29.10;90.40
14119;DHT22;7138;49.246;9.100;2022-07-05T11:06:56;28.30;89.10
14119;DHT22;7138;49.246;9.100;2022-07-05T11:09:22;27.90;87.90
14119;DHT22;7138;49.246;9.100;2022-07-05T11:12:08;28.30;90.40
14119;DHT22;7138;49.246;9.100;2022-07-05T11:14:38;28.70;89.10
14119;DHT22;7138;49.246;9.100;2022-07-05T11:17:11;28.50;90.00
14119;DHT22;7138;49.246;9.100;2022-07-05T11:20:15;28.50;87.20
14119;DHT22;7138;49.246;9.100;2022-07-05T11:23:02;28.40;91.80
14119;DHT22;7138;49.246;9.100;2022-07-05T11:25:37;28.30;86.70
14119;DHT22;7138;49.246;9.100;2022-07-05T11:28:17;28.30;85.60
14119;DHT22;7138;49.246;9.100;2022-07-05T11:30:54;28.50;88.60
14119;DHT22;7138;49.246;9.100;2022-07-05T11:33:33;28.70;89.10
14119;DHT22;7138;49.246;9.100;2022-07-05T11:36:05;29.00;87.80
14119;DHT22;7138;49.246;9.100;2022-07-05T11:39:08;29.00;82.90
14119;DHT22;7138;49.246;9.100;2022-07-05T11:41:37;28.90;86.40
14119;DHT22;7138;49.246;9.100;2022-07-05T11:44:06;28.70;81.80
14119;DHT22;7138;49.246;9.100;2022-07-05T11:46:34;28.80;80.20
14119;DHT22;7138;49.246;9.100;2022-07-05T11:49:00;29.20;81.80
14119;DHT22;7138;49.246;9.100;2022-07-05T11:51:26;29.20;87.80
14119;DHT22;7138;49.246;9.100;2022-07-05T11:53:52;28.90;88.10
14119;DHT22;7138;49.246;9.100;2022-07-05T11:56:18;29.10;86.80
14119;DHT22;7138;49.246;9.100;2022-07-05T11:58:44;28.40;86.30
14119;DHT22;7138;49.246;9.100;2022-07-05T12:01:10;28.60;89.90
14119;DHT22;7138;49.246;9.100;2022-07-05T12:03:37;29.00;90.40
14119;DHT22;7138;49.246;9.100;2022-07-05T12:06:11;29.50;90.40
14119;DHT22;7138;49.246;9.100;2022-07-05T12:08:38;29.40;85.70
14119;DHT22;7138;49.246;9.100;2022-07-05T12:11:04;29.40;85.60
14119;DHT22;7138;49.246;9.100;2022-07-05T12:13:50;28.90;88.30
14119;DHT22;7138;49.246;9.100;2022-07-05T12:16:17;28.80;86.70
14119;DHT22;7138;49.246;9.100;2022-07-05T12:18:51;28.20;86.10
14119;DHT22;7138;49.246;9.100;2022-07-05T12:21:20;28.30;85.10
14119;DHT22;7138;49.246;9.100;2022-07-05T12:23:48;28.80;89.80
14119;DHT22;7138;49.246;9.100;2022-07-05T12:26:16;28.70;84.70
14119;DHT22;7138;49.246;9.100;2022-07-05T12:28:43;28.70;84.40
14119;DHT22;7138;49.246;9.100;2022-07-05T12:31:18;27.90;81.40
14119;DHT22;7138;49.246;9.100;2022-07-05T12:33:45;27.80;85.00
14119;DHT22;7138;49.246;9.100;2022-07-05T12:36:14;27.80;88.90
14119;DHT22;7138;49.246;9.100;2022-07-05T12:38:40;27.70;84.00
14119;DHT22;7138;49.246;9.100;2022-07-05T12:41:07;27.60;84.20
14119;DHT22;7138;49.246;9.100;2022-07-05T12:43:48;27.90;90.10
14119;DHT22;7138;49.246;9.100;2022-07-05T12:46:15;28.50;88.00
14119;DHT22;7138;49.246;9.100;2022-07-05T12:48:41;29.00;89.80
14119;DHT22;7138;49.246;9.100;2022-07-05T12:51:08;29.20;84.10
14119;DHT22;7138;49.246;9.100;2022-07-05T12:53:44;29.10;81.60
14119;DHT22;7138;49.246;9.100;2022-07-05T12:56:29;29.20;85.70
14119;DHT22;7138;49.246;9.100;2022-07-05T12:59:14;29.10;81.50
14119;DHT22;7138;49.246;9.100;2022-07-05T13:01:42;28.80;80.50
14119;DHT22;7138;49.246;9.100;2022-07-05T13:04:10;29.10;87.80
14119;DHT22;7138;49.246;9.100;2022-07-05T13:06:48;29.20;84.00
14119;DHT22;7138;49.246;9.100;2022-07-05T13:09:32;29.00;80.90
14119;DHT22;7138;49.246;9.100;2022-07-05T13:12:07;29.40;86.40
14119;DHT22;7138;49.246;9.100;2022-07-05T13:14:36;29.20;81.50
14119;DHT22;7138;49.246;9.100;2022-07-05T13:17:03;28.90;79.50
14119;DHT22;7138;49.246;9.100;2022-07-05T13:19:29;28.20;88.30
14119;DHT22;7138;49.246;9.100;2022-07-05T13:21:55;28.90;83.10
14119;DHT22;7138;49.246;9.100;2022-07-05T13:24:23;28.90;81.10
14119;DHT22;7138;49.246;9.100;2022-07-05T13:26:48;28.40;81.40
14119;DHT22;7138;49.246;9.100;2022-07-05T13:29:14;28.10;80.80
14119;DHT22;7138;49.246;9.100;2022-07-05T13:31:40;28.30;82.00
14119;DHT22;7138;49.246;9.100;2022-07-05T13:34:07;28.60;77.10
14119;DHT22;7138;49.246;9.100;2022-07-05T13:36:33;28.30;86.10
14119;DHT22;7138;49.246;9.100;2022-07-05T13:38:58;28.80;83.10
14119;DHT22;7138;49.246;9.100;2022-07-05T13:41:26;29.00;84.40
14119;DHT22;7138;49.246;9.100;2022-07-05T13:43:52;29.00;82.30
14119;DHT22;7138;49.246;9.100;2022-07-05T13:46:18;29.20;85.10
14119;DHT22;7138;49.246;9.100;2022-07-05T13:48:44;29.30;78.80
14119;DHT22;7138;49.246;9.100;2022-07-05T13:51:10;29.10;83.10
14119;DHT22;7138;49.246;9.100;2022-07-05T13:53:36;29.30;83.80
14119;DHT22;7138;49.246;9.100;2022-07-05T13:56:03;29.10;80.70
14119;DHT22;7138;49.246;9.100;2022-07-05T13:58:30;28.70;78.80
14119;DHT22;7138;49.246;9.100;2022-07-05T14:00:56;28.50;80.50
14119;DHT22;7138;49.246;9.100;2022-07-05T14:03:22;28.60;78.50
14119;DHT22;7138;49.246;9.100;2022-07-05T14:05:48;28.60;81.10
14119;DHT22;7138;49.246;9.100;2022-07-05T14:08:15;28.50;79.70
14119;DHT22;7138;49.246;9.100;2022-07-05T14:10:47;28.80;81.10
14119;DHT22;7138;49.246;9.100;2022-07-05T14:13:15;28.60;79.00
14119;DHT22;7138;49.246;9.100;2022-07-05T14:15:43;28.80;80.00
14119;DHT22;7138;49.246;9.100;2022-07-05T14:18:11;28.70;79.00
14119;DHT22;7138;49.246;9.100;2022-07-05T14:20:37;29.00;78.50
14119;DHT22;7138;49.246;9.100;2022-07-05T14:23:02;28.80;80.50
14119;DHT22;7138;49.246;9.100;2022-07-05T14:25:28;28.70;80.00
14119;DHT22;7138;49.246;9.100;2022-07-05T14:27:54;28.80;81.70
14119;DHT22;7138;49.246;9.100;2022-07-05T14:30:20;28.60;81.60
14119;DHT22;7138;49.246;9.100;2022-07-05T14:32:50;28.20;78.70
14119;DHT22;7138;49.246;9.100;2022-07-05T14:35:16;27.60;79.40
14119;DHT22;7138;49.246;9.100;2022-07-05T14:37:43;27.50;84.70
14119;DHT22;7138;49.246;9.100;2022-07-05T14:40:10;27.60;82.10
14119;DHT22;7138;49.246;9.100;2022-07-05T14:42:36;27.30;83.40
14119;DHT22;7138;49.246;9.100;2022-07-05T14:45:02;27.20;82.80
14119;DHT22;7138;49.246;9.100;2022-07-05T14:47:28;27.50;81.70
14119;DHT22;7138;49.246;9.100;2022-07-05T14:49:55;27.70;81.30
14119;DHT22;7138;49.246;9.100;2022-07-05T14:52:21;27.70;86.70
14119;DHT22;7138;49.246;9.100;2022-07-05T14:54:47;28.00;82.00
14119;DHT22;7138;49.246;9.100;2022-07-05T14:57:13;27.70;82.10
14119;DHT22;7138;49.246;9.100;2022-07-05T14:59:39;27.90;83.90
14119;DHT22;7138;49.246;9.100;2022-07-05T15:02:07;27.90;80.10
14119;DHT22;7138;49.246;9.100;2022-07-05T15:04:34;27.50;80.90
14119;DHT22;7138;49.246;9.100;2022-07-05T15:07:01;27.50;81.70
14119;DHT22;7138;49.246;9.100;2022-07-05T15:09:28;27.30;79.50
14119;DHT22;7138;49.246;9.100;2022-07-05T15:11:54;27.20;79.90
14119;DHT22;7138;49.246;9.100;2022-07-05T15:14:19;27.30;81.20
14119;DHT22;7138;49.246;9.100;2022-07-05T15:16:45;27.40;81.30
14119;DHT22;7138;49.246;9.100;2022-07-05T15:19:11;27.30;79.40
14119;DHT22;7138;49.246;9.100;2022-07-05T15:21:37;27.30;80.10
14119;DHT22;7138;49.246;9.100;2022-07-05T15:24:05;27.40;82.40
14119;DHT22;7138;49.246;9.100;2022-07-05T15:26:31;27.80;84.90
14119;DHT22;7138;49.246;9.100;2022-07-05T15:29:02;28.00;86.10
14119;DHT22;7138;49.246;9.100;2022-07-05T15:31:30;27.90;81.50
14119;DHT22;7138;49.246;9.100;2022-07-05T15:33:58;27.60;81.70
14119;DHT22;7138;49.246;9.100;2022-07-05T15:36:24;27.30;80.40
14119;DHT22;7138;49.246;9.100;2022-07-05T15:38:51;27.30;86.10
14119;DHT22;7138;49.246;9.100;2022-07-05T15:41:18;27.10;78.00
14119;DHT22;7138;49.246;9.100;2022-07-05T15:43:44;26.90;83.40
14119;DHT22;7138;49.246;9.100;2022-07-05T15:46:10;26.50;81.70
14119;DHT22;7138;49.246;9.100;2022-07-05T15:48:36;26.30;82.20
14119;DHT22;7138;49.246;9.100;2022-07-05T15:51:02;26.20;82.30
14119;DHT22;7138;49.246;9.100;2022-07-05T15:53:30;26.10;82.80